sensor_id;sensor_type;location;lat;lon;timestamp;P1;durP1;ratioP1;P2;durP2;ratioP2
15408;SDS011;7803;48.130;13.788;2023-04-25T00:00:49;2.00;;;1.50;;
15408;SDS011;7803;48.130;13.788;2023-04-25T00:03:52;2.60;;;1.42;;
15408;SDS011;7803;48.130;13.788;2023-04-25T00:06:54;1.55;;;1.30;;
15408;SDS011;7803;48.130;13.788;2023-04-25T00:09:57;2.95;;;1.60;;
15408;SDS011;7803;48.130;13.788;2023-04-25T00:12:59;2.53;;;1.60;;
15408;SDS011;7803;48.130;13.788;2023-04-25T00:16:04;1.90;;;1.40;;
15408;SDS011;7803;48.130;13.788;2023-04-25T00:19:07;1.85;;;1.45;;
15408;SDS011;7803;48.130;13.788;2023-04-25T00:22:09;1.63;;;1.40;;
15408;SDS011;7803;48.130;13.788;2023-04-25T00:25:11;1.88;;;1.40;;
15408;SDS011;7803;48.130;13.788;2023-04-25T00:28:13;2.17;;;1.40;;
15408;SDS011;7803;48.130;13.788;2023-04-25T00:31:17;2.10;;;1.45;;
15408;SDS011;7803;48.130;13.788;2023-04-25T00:34:19;1.92;;;1.42;;
15408;SDS011;7803;48.130;13.788;2023-04-25T00:37:21;1.50;;;1.27;;
15408;SDS011;7803;48.130;13.788;2023-04-25T00:40:23;3.00;;;1.40;;
15408;SDS011;7803;48.130;13.788;2023-04-25T00:43:26;1.55;;;1.30;;
15408;SDS011;7803;48.130;13.788;2023-04-25T00:46:30;1.75;;;1.40;;
15408;SDS011;7803;48.130;13.788;2023-04-25T00:49:32;1.92;;;1.27;;
15408;SDS011;7803;48.130;13.788;2023-04-25T00:52:34;1.88;;;1.40;;
15408;SDS011;7803;48.130;13.788;2023-04-25T00:55:37;1.42;;;1.30;;
15408;SDS011;7803;48.130;13.788;2023-04-25T00:58:39;1.45;;;1.20;;
15408;SDS011;7803;48.130;13.788;2023-04-25T01:01:43;1.67;;;1.30;;
15408;SDS011;7803;48.130;13.788;2023-04-25T01:04:47;1.50;;;1.27;;
15408;SDS011;7803;48.130;13.788;2023-04-25T01:07:49;2.17;;;1.30;;
15408;SDS011;7803;48.130;13.788;2023-04-25T01:10:52;2.40;;;1.50;;
15408;SDS011;7803;48.130;13.788;2023-04-25T01:13:54;1.67;;;1.30;;
15408;SDS011;7803;48.130;13.788;2023-04-25T01:16:57;1.50;;;1.40;;
15408;SDS011;7803;48.130;13.788;2023-04-25T01:20:01;1.50;;;1.20;;
15408;SDS011;7803;48.130;13.788;2023-04-25T01:23:06;2.22;;;1.25;;
15408;SDS011;7803;48.130;13.788;2023-04-25T01:26:09;1.38;;;1.10;;
15408;SDS011;7803;48.130;13.788;2023-04-25T01:29:12;1.65;;;1.20;;
15408;SDS011;7803;48.130;13.788;2023-04-25T01:32:14;1.15;;;1.05;;
15408;SDS011;7803;48.130;13.788;2023-04-25T01:35:16;1.20;;;1.10;;
15408;SDS011;7803;48.130;13.788;2023-04-25T01:38:20;1.20;;;1.10;;
15408;SDS011;7803;48.130;13.788;2023-04-25T01:41:22;2.13;;;1.10;;
15408;SDS011;7803;48.130;13.788;2023-04-25T01:44:24;1.40;;;1.30;;
15408;SDS011;7803;48.130;13.788;2023-04-25T01:47:26;2.13;;;1.40;;
15408;SDS011;7803;48.130;13.788;2023-04-25T01:50:28;1.40;;;1.13;;
15408;SDS011;7803;48.130;13.788;2023-04-25T01:53:32;1.73;;;1.20;;
15408;SDS011;7803;48.130;13.788;2023-04-25T01:56:36;1.30;;;1.10;;
15408;SDS011;7803;48.130;13.788;2023-04-25T01:59:38;1.30;;;1.20;;
15408;SDS011;7803;48.130;13.788;2023-04-25T02:02:41;1.45;;;1.10;;
15408;SDS011;7803;48.130;13.788;2023-04-25T02:05:43;1.40;;;1.30;;
15408;SDS011;7803;48.130;13.788;2023-04-25T02:08:47;1.67;;;1.30;;
15408;SDS011;7803;48.130;13.788;2023-04-25T02:11:49;2.63;;;1.58;;
15408;SDS011;7803;48.130;13.788;2023-04-25T02:14:51;1.30;;;1.20;;
15408;SDS011;7803;48.130;13.788;2023-04-25T02:17:53;1.70;;;1.60;;
15408;SDS011;7803;48.130;13.788;2023-04-25T02:20:57;2.00;;;1.80;;
15408;SDS011;7803;48.130;13.788;2023-04-25T02:24:02;2.22;;;1.90;;
15408;SDS011;7803;48.130;13.788;2023-04-25T02:27:05;2.28;;;2.05;;
15408;SDS011;7803;48.130;13.788;2023-04-25T02:30:08;2.22;;;2.03;;
15408;SDS011;7803;48.130;13.788;2023-04-25T02:33:10;2.30;;;2.10;;
15408;SDS011;7803;48.130;13.788;2023-04-25T02:36:12;2.50;;;2.30;;
15408;SDS011;7803;48.130;13.788;2023-04-25T02:39:15;2.60;;;2.40;;
15408;SDS011;7803;48.130;13.788;2023-04-25T02:42:17;2.65;;;2.45;;
15408;SDS011;7803;48.130;13.788;2023-04-25T02:45:19;3.13;;;2.72;;
15408;SDS011;7803;48.130;13.788;2023-04-25T02:48:22;2.70;;;2.50;;
15408;SDS011;7803;48.130;13.788;2023-04-25T02:51:24;2.78;;;2.58;;
15408;SDS011;7803;48.130;13.788;2023-04-25T02:54:27;3.85;;;2.50;;
15408;SDS011;7803;48.130;13.788;2023-04-25T02:57:29;4.13;;;3.00;;
15408;SDS011;7803;48.130;13.788;2023-04-25T03:00:32;3.97;;;2.95;;
15408;SDS011;7803;48.130;13.788;2023-04-25T03:03:33;3.35;;;3.05;;
15408;SDS011;7803;48.130;13.788;2023-04-25T03:06:35;3.63;;;3.33;;
15408;SDS011;7803;48.130;13.788;2023-04-25T03:09:39;3.67;;;3.38;;
15408;SDS011;7803;48.130;13.788;2023-04-25T03:12:41;3.85;;;3.45;;
15408;SDS011;7803;48.130;13.788;2023-04-25T03:15:43;4.20;;;3.80;;
15408;SDS011;7803;48.130;13.788;2023-04-25T03:18:45;4.07;;;3.67;;
15408;SDS011;7803;48.130;13.788;2023-04-25T03:21:47;4.10;;;3.70;;
15408;SDS011;7803;48.130;13.788;2023-04-25T03:24:50;3.85;;;3.47;;
15408;SDS011;7803;48.130;13.788;2023-04-25T03:27:52;4.13;;;3.75;;
15408;SDS011;7803;48.130;13.788;2023-04-25T03:30:55;4.32;;;3.92;;
15408;SDS011;7803;48.130;13.788;2023-04-25T03:33:57;4.15;;;3.75;;
15408;SDS011;7803;48.130;13.788;2023-04-25T03:36:59;4.80;;;4.20;;
15408;SDS011;7803;48.130;13.788;2023-04-25T03:40:03;4.60;;;4.20;;
15408;SDS011;7803;48.130;13.788;2023-04-25T03:43:06;4.47;;;4.07;;
15408;SDS011;7803;48.130;13.788;2023-04-25T03:46:08;4.82;;;4.43;;
15408;SDS011;7803;48.130;13.788;2023-04-25T03:49:10;4.97;;;4.53;;
15408;SDS011;7803;48.130;13.788;2023-04-25T03:52:12;5.13;;;4.63;;
15408;SDS011;7803;48.130;13.788;2023-04-25T03:55:15;5.00;;;4.38;;
15408;SDS011;7803;48.130;13.788;2023-04-25T03:58:17;6.85;;;5.05;;
15408;SDS011;7803;48.130;13.788;2023-04-25T04:01:19;5.40;;;4.90;;
15408;SDS011;7803;48.130;13.788;2023-04-25T04:04:21;5.63;;;4.97;;
15408;SDS011;7803;48.130;13.788;2023-04-25T04:07:23;5.55;;;5.05;;
15408;SDS011;7803;48.130;13.788;2023-04-25T04:10:26;5.82;;;4.80;;
15408;SDS011;7803;48.130;13.788;2023-04-25T04:13:29;5.95;;;5.28;;
15408;SDS011;7803;48.130;13.788;2023-04-25T04:16:31;5.63;;;5.13;;
15408;SDS011;7803;48.130;13.788;2023-04-25T04:19:33;6.05;;;5.38;;
15408;SDS011;7803;48.130;13.788;2023-04-25T04:22:35;7.10;;;5.25;;
15408;SDS011;7803;48.130;13.788;2023-04-25T04:25:38;6.00;;;5.40;;
15408;SDS011;7803;48.130;13.788;2023-04-25T04:28:42;5.43;;;4.93;;
15408;SDS011;7803;48.130;13.788;2023-04-25T04:31:44;6.25;;;5.25;;
15408;SDS011;7803;48.130;13.788;2023-04-25T04:34:46;5.05;;;4.55;;
15408;SDS011;7803;48.130;13.788;2023-04-25T04:37:48;5.40;;;4.90;;
15408;SDS011;7803;48.130;13.788;2023-04-25T04:40:52;5.63;;;5.13;;
15408;SDS011;7803;48.130;13.788;2023-04-25T04:43:54;5.75;;;4.95;;
15408;SDS011;7803;48.130;13.788;2023-04-25T04:46:56;8.15;;;4.80;;
15408;SDS011;7803;48.130;13.788;2023-04-25T04:49:58;5.70;;;4.70;;
15408;SDS011;7803;48.130;13.788;2023-04-25T04:53:00;5.53;;;4.95;;
15408;SDS011;7803;48.130;13.788;2023-04-25T04:56:04;5.30;;;4.80;;
15408;SDS011;7803;48.130;13.788;2023-04-25T04:59:06;5.40;;;4.90;;
15408;SDS011;7803;48.130;13.788;2023-04-25T05:02:08;5.35;;;4.85;;
15408;SDS011;7803;48.130;13.788;2023-04-25T05:05:10;5.30;;;4.80;;
15408;SDS011;7803;48.130;13.788;2023-04-25T05:08:12;5.20;;;4.70;;
15408;SDS011;7803;48.130;13.788;2023-04-25T05:11:16;5.20;;;4.70;;
15408;SDS011;7803;48.130;13.788;2023-04-25T05:14:18;5.18;;;4.68;;
15408;SDS011;7803;48.130;13.788;2023-04-25T05:17:20;5.20;;;4.70;;
15408;SDS011;7803;48.130;13.788;2023-04-25T05:20:22;5.22;;;4.72;;
15408;SDS011;7803;48.130;13.788;2023-04-25T05:23:24;5.43;;;4.93;;
15408;SDS011;7803;48.130;13.788;2023-04-25T05:26:29;5.20;;;4.70;;
15408;SDS011;7803;48.130;13.788;2023-04-25T05:29:31;5.82;;;4.53;;
15408;SDS011;7803;48.130;13.788;2023-04-25T05:32:33;5.68;;;5.07;;
15408;SDS011;7803;48.130;13.788;2023-04-25T05:35:35;5.50;;;5.00;;
15408;SDS011;7803;48.130;13.788;2023-04-25T05:38:37;5.10;;;4.60;;
15408;SDS011;7803;48.130;13.788;2023-04-25T05:41:40;5.00;;;4.50;;
15408;SDS011;7803;48.130;13.788;2023-04-25T05:44:43;5.07;;;4.57;;
15408;SDS011;7803;48.130;13.788;2023-04-25T05:47:45;4.70;;;4.30;;
15408;SDS011;7803;48.130;13.788;2023-04-25T05:50:47;5.45;;;4.95;;
15408;SDS011;7803;48.130;13.788;2023-04-25T05:53:49;5.10;;;4.60;;
15408;SDS011;7803;48.130;13.788;2023-04-25T05:56:52;5.35;;;4.57;;
15408;SDS011;7803;48.130;13.788;2023-04-25T05:59:54;5.00;;;4.50;;
15408;SDS011;7803;48.130;13.788;2023-04-25T06:02:56;5.05;;;4.55;;
15408;SDS011;7803;48.130;13.788;2023-04-25T06:05:58;5.25;;;4.70;;
15408;SDS011;7803;48.130;13.788;2023-04-25T06:09:00;5.15;;;4.65;;
15408;SDS011;7803;48.130;13.788;2023-04-25T06:12:04;4.57;;;4.18;;
15408;SDS011;7803;48.130;13.788;2023-04-25T06:15:07;4.68;;;4.28;;
15408;SDS011;7803;48.130;13.788;2023-04-25T06:18:10;5.07;;;4.13;;
15408;SDS011;7803;48.130;13.788;2023-04-25T06:21:12;4.70;;;4.20;;
15408;SDS011;7803;48.130;13.788;2023-04-25T06:24:14;4.45;;;3.88;;
15408;SDS011;7803;48.130;13.788;2023-04-25T06:27:17;4.55;;;4.15;;
15408;SDS011;7803;48.130;13.788;2023-04-25T06:30:19;4.65;;;4.07;;
15408;SDS011;7803;48.130;13.788;2023-04-25T06:33:23;4.45;;;4.05;;
15408;SDS011;7803;48.130;13.788;2023-04-25T06:36:26;4.60;;;4.20;;
15408;SDS011;7803;48.130;13.788;2023-04-25T06:39:28;4.75;;;4.20;;
15408;SDS011;7803;48.130;13.788;2023-04-25T06:42:32;4.30;;;3.90;;
15408;SDS011;7803;48.130;13.788;2023-04-25T06:45:34;4.40;;;3.90;;
15408;SDS011;7803;48.130;13.788;2023-04-25T06:48:36;4.15;;;3.75;;
15408;SDS011;7803;48.130;13.788;2023-04-25T06:51:38;4.05;;;3.65;;
15408;SDS011;7803;48.130;13.788;2023-04-25T06:54:40;4.18;;;3.78;;
15408;SDS011;7803;48.130;13.788;2023-04-25T06:57:43;4.20;;;3.80;;
15408;SDS011;7803;48.130;13.788;2023-04-25T07:00:45;4.40;;;3.97;;
15408;SDS011;7803;48.130;13.788;2023-04-25T07:03:47;4.30;;;3.90;;
15408;SDS011;7803;48.130;13.788;2023-04-25T07:06:49;4.57;;;3.55;;
15408;SDS011;7803;48.130;13.788;2023-04-25T07:09:51;4.30;;;3.90;;
15408;SDS011;7803;48.130;13.788;2023-04-25T07:12:54;4.15;;;3.75;;
15408;SDS011;7803;48.130;13.788;2023-04-25T07:15:56;3.80;;;3.40;;
15408;SDS011;7803;48.130;13.788;2023-04-25T07:18:58;3.92;;;3.53;;
15408;SDS011;7803;48.130;13.788;2023-04-25T07:22:00;3.95;;;3.58;;
15408;SDS011;7803;48.130;13.788;2023-04-25T07:25:02;4.13;;;3.72;;
15408;SDS011;7803;48.130;13.788;2023-04-25T07:28:06;4.03;;;3.63;;
15408;SDS011;7803;48.130;13.788;2023-04-25T07:31:08;3.80;;;3.50;;
15408;SDS011;7803;48.130;13.788;2023-04-25T07:34:10;3.70;;;3.30;;
15408;SDS011;7803;48.130;13.788;2023-04-25T07:37:13;3.72;;;3.42;;
15408;SDS011;7803;48.130;13.788;2023-04-25T07:40:15;3.67;;;3.38;;
15408;SDS011;7803;48.130;13.788;2023-04-25T07:43:18;3.80;;;3.40;;
15408;SDS011;7803;48.130;13.788;2023-04-25T07:46:20;3.83;;;3.47;;
15408;SDS011;7803;48.130;13.788;2023-04-25T07:49:22;3.55;;;3.25;;
15408;SDS011;7803;48.130;13.788;2023-04-25T07:52:24;3.22;;;2.92;;
15408;SDS011;7803;48.130;13.788;2023-04-25T07:55:27;3.47;;;3.08;;
15408;SDS011;7803;48.130;13.788;2023-04-25T07:58:30;3.30;;;3.00;;
15408;SDS011;7803;48.130;13.788;2023-04-25T08:01:33;3.78;;;3.33;;
15408;SDS011;7803;48.130;13.788;2023-04-25T08:04:35;3.40;;;3.10;;
15408;SDS011;7803;48.130;13.788;2023-04-25T08:07:37;3.42;;;3.13;;
15408;SDS011;7803;48.130;13.788;2023-04-25T08:10:40;3.38;;;3.03;;
15408;SDS011;7803;48.130;13.788;2023-04-25T08:13:44;3.05;;;2.75;;
15408;SDS011;7803;48.130;13.788;2023-04-25T08:16:46;3.22;;;2.90;;
15408;SDS011;7803;48.130;13.788;2023-04-25T08:19:48;3.15;;;2.85;;
15408;SDS011;7803;48.130;13.788;2023-04-25T08:22:50;2.90;;;2.65;;
15408;SDS011;7803;48.130;13.788;2023-04-25T08:25:52;2.72;;;2.53;;
15408;SDS011;7803;48.130;13.788;2023-04-25T08:28:55;3.20;;;2.90;;
15408;SDS011;7803;48.130;13.788;2023-04-25T08:31:57;3.22;;;2.92;;
15408;SDS011;7803;48.130;13.788;2023-04-25T08:34:59;3.00;;;2.70;;
15408;SDS011;7803;48.130;13.788;2023-04-25T08:38:01;2.80;;;2.53;;
15408;SDS011;7803;48.130;13.788;2023-04-25T08:41:03;2.88;;;2.58;;
15408;SDS011;7803;48.130;13.788;2023-04-25T08:44:10;2.85;;;2.60;;
15408;SDS011;7803;48.130;13.788;2023-04-25T08:47:12;3.00;;;2.70;;
15408;SDS011;7803;48.130;13.788;2023-04-25T08:50:14;2.78;;;2.58;;
15408;SDS011;7803;48.130;13.788;2023-04-25T08:53:21;2.88;;;2.63;;
15408;SDS011;7803;48.130;13.788;2023-04-25T08:56:23;2.88;;;2.67;;
15408;SDS011;7803;48.130;13.788;2023-04-25T08:59:27;3.20;;;2.70;;
15408;SDS011;7803;48.130;13.788;2023-04-25T09:02:30;2.80;;;2.50;;
15408;SDS011;7803;48.130;13.788;2023-04-25T09:05:32;3.08;;;2.63;;
15408;SDS011;7803;48.130;13.788;2023-04-25T09:08:36;2.97;;;2.70;;
15408;SDS011;7803;48.130;13.788;2023-04-25T09:11:40;2.53;;;2.33;;
15408;SDS011;7803;48.130;13.788;2023-04-25T09:14:43;2.47;;;2.22;;
15408;SDS011;7803;48.130;13.788;2023-04-25T09:18:04;2.53;;;2.33;;
15408;SDS011;7803;48.130;13.788;2023-04-25T09:21:06;2.40;;;2.20;;
15408;SDS011;7803;48.130;13.788;2023-04-25T09:24:10;2.60;;;2.40;;
15408;SDS011;7803;48.130;13.788;2023-04-25T09:27:13;3.40;;;2.50;;
15408;SDS011;7803;48.130;13.788;2023-04-25T09:30:29;2.75;;;2.55;;
15408;SDS011;7803;48.130;13.788;2023-04-25T09:33:33;2.65;;;2.45;;
15408;SDS011;7803;48.130;13.788;2023-04-25T09:36:36;2.28;;;2.08;;
15408;SDS011;7803;48.130;13.788;2023-04-25T09:39:38;3.22;;;2.45;;
15408;SDS011;7803;48.130;13.788;2023-04-25T09:42:41;2.40;;;2.20;;
15408;SDS011;7803;48.130;13.788;2023-04-25T09:45:44;2.40;;;2.20;;
15408;SDS011;7803;48.130;13.788;2023-04-25T09:48:48;2.50;;;2.30;;
15408;SDS011;7803;48.130;13.788;2023-04-25T09:51:54;2.90;;;2.55;;
15408;SDS011;7803;48.130;13.788;2023-04-25T09:54:57;2.53;;;2.33;;
15408;SDS011;7803;48.130;13.788;2023-04-25T09:58:00;2.10;;;1.90;;
15408;SDS011;7803;48.130;13.788;2023-04-25T10:01:08;2.70;;;2.00;;
15408;SDS011;7803;48.130;13.788;2023-04-25T10:04:11;2.33;;;2.13;;
15408;SDS011;7803;48.130;13.788;2023-04-25T10:07:13;2.42;;;2.22;;
15408;SDS011;7803;48.130;13.788;2023-04-25T10:10:15;2.40;;;2.20;;
15408;SDS011;7803;48.130;13.788;2023-04-25T10:13:19;2.47;;;2.28;;
15408;SDS011;7803;48.130;13.788;2023-04-25T10:16:22;2.30;;;2.10;;
15408;SDS011;7803;48.130;13.788;2023-04-25T10:19:26;2.15;;;1.95;;
15408;SDS011;7803;48.130;13.788;2023-04-25T10:22:29;2.80;;;2.28;;
15408;SDS011;7803;48.130;13.788;2023-04-25T10:25:35;2.75;;;2.50;;
15408;SDS011;7803;48.130;13.788;2023-04-25T10:31:59;2.42;;;2.13;;
15408;SDS011;7803;48.130;13.788;2023-04-25T10:35:11;2.75;;;1.92;;
15408;SDS011;7803;48.130;13.788;2023-04-25T10:38:15;2.20;;;2.00;;
15408;SDS011;7803;48.130;13.788;2023-04-25T10:41:18;2.20;;;2.00;;
15408;SDS011;7803;48.130;13.788;2023-04-25T10:44:21;2.20;;;2.00;;
15408;SDS011;7803;48.130;13.788;2023-04-25T10:47:28;2.05;;;1.95;;
15408;SDS011;7803;48.130;13.788;2023-04-25T10:50:37;2.67;;;1.95;;
15408;SDS011;7803;48.130;13.788;2023-04-25T10:53:40;2.25;;;2.05;;
15408;SDS011;7803;48.130;13.788;2023-04-25T10:56:42;1.95;;;1.80;;
15408;SDS011;7803;48.130;13.788;2023-04-25T10:59:44;2.15;;;1.95;;
15408;SDS011;7803;48.130;13.788;2023-04-25T11:02:50;2.20;;;2.00;;
15408;SDS011;7803;48.130;13.788;2023-04-25T11:05:54;2.00;;;1.80;;
15408;SDS011;7803;48.130;13.788;2023-04-25T11:08:56;1.67;;;1.58;;
15408;SDS011;7803;48.130;13.788;2023-04-25T11:11:58;2.10;;;1.90;;
15408;SDS011;7803;48.130;13.788;2023-04-25T11:15:02;1.88;;;1.65;;
15408;SDS011;7803;48.130;13.788;2023-04-25T11:18:06;1.98;;;1.80;;
15408;SDS011;7803;48.130;13.788;2023-04-25T11:21:08;2.03;;;1.83;;
15408;SDS011;7803;48.130;13.788;2023-04-25T11:24:10;1.80;;;1.70;;
15408;SDS011;7803;48.130;13.788;2023-04-25T11:27:13;2.10;;;1.90;;
15408;SDS011;7803;48.130;13.788;2023-04-25T11:30:15;1.98;;;1.77;;
15408;SDS011;7803;48.130;13.788;2023-04-25T11:33:22;1.80;;;1.70;;
15408;SDS011;7803;48.130;13.788;2023-04-25T11:36:25;1.70;;;1.60;;
15408;SDS011;7803;48.130;13.788;2023-04-25T11:39:27;1.77;;;1.67;;
15408;SDS011;7803;48.130;13.788;2023-04-25T11:42:30;1.70;;;1.60;;
15408;SDS011;7803;48.130;13.788;2023-04-25T11:45:32;1.95;;;1.75;;
15408;SDS011;7803;48.130;13.788;2023-04-25T11:48:38;1.75;;;1.65;;
15408;SDS011;7803;48.130;13.788;2023-04-25T11:51:40;1.98;;;1.70;;
15408;SDS011;7803;48.130;13.788;2023-04-25T11:54:43;1.90;;;1.70;;
15408;SDS011;7803;48.130;13.788;2023-04-25T11:57:47;2.00;;;1.70;;
15408;SDS011;7803;48.130;13.788;2023-04-25T12:00:50;1.60;;;1.48;;
15408;SDS011;7803;48.130;13.788;2023-04-25T12:03:54;1.80;;;1.70;;
15408;SDS011;7803;48.130;13.788;2023-04-25T12:06:55;2.33;;;1.73;;
15408;SDS011;7803;48.130;13.788;2023-04-25T12:09:57;1.63;;;1.52;;
15408;SDS011;7803;48.130;13.788;2023-04-25T12:13:00;1.58;;;1.48;;
15408;SDS011;7803;48.130;13.788;2023-04-25T12:16:18;1.92;;;1.50;;
15408;SDS011;7803;48.130;13.788;2023-04-25T12:19:22;1.80;;;1.50;;
15408;SDS011;7803;48.130;13.788;2023-04-25T12:22:24;1.95;;;1.73;;
15408;SDS011;7803;48.130;13.788;2023-04-25T12:25:35;1.67;;;1.58;;
15408;SDS011;7803;48.130;13.788;2023-04-25T12:28:38;2.17;;;1.65;;
15408;SDS011;7803;48.130;13.788;2023-04-25T12:31:40;1.70;;;1.60;;
15408;SDS011;7803;48.130;13.788;2023-04-25T12:34:43;1.83;;;1.55;;
15408;SDS011;7803;48.130;13.788;2023-04-25T12:37:46;1.60;;;1.50;;
15408;SDS011;7803;48.130;13.788;2023-04-25T12:40:48;1.50;;;1.40;;
15408;SDS011;7803;48.130;13.788;2023-04-25T12:43:50;2.00;;;1.60;;
15408;SDS011;7803;48.130;13.788;2023-04-25T12:46:52;1.67;;;1.58;;
15408;SDS011;7803;48.130;13.788;2023-04-25T12:49:57;1.40;;;1.30;;
15408;SDS011;7803;48.130;13.788;2023-04-25T12:53:00;1.92;;;1.50;;
15408;SDS011;7803;48.130;13.788;2023-04-25T12:56:02;1.63;;;1.30;;
15408;SDS011;7803;48.130;13.788;2023-04-25T12:59:04;1.70;;;1.60;;
15408;SDS011;7803;48.130;13.788;2023-04-25T13:02:06;1.63;;;1.50;;
15408;SDS011;7803;48.130;13.788;2023-04-25T13:05:09;1.65;;;1.30;;
15408;SDS011;7803;48.130;13.788;2023-04-25T13:08:11;1.63;;;1.10;;
15408;SDS011;7803;48.130;13.788;2023-04-25T13:11:13;1.40;;;1.30;;
15408;SDS011;7803;48.130;13.788;2023-04-25T13:14:15;1.50;;;1.40;;
15408;SDS011;7803;48.130;13.788;2023-04-25T13:17:17;1.30;;;1.20;;
15408;SDS011;7803;48.130;13.788;2023-04-25T13:20:21;1.30;;;1.20;;
15408;SDS011;7803;48.130;13.788;2023-04-25T13:23:24;1.40;;;1.30;;
15408;SDS011;7803;48.130;13.788;2023-04-25T13:26:27;1.63;;;1.40;;
15408;SDS011;7803;48.130;13.788;2023-04-25T13:29:29;1.52;;;1.40;;
15408;SDS011;7803;48.130;13.788;2023-04-25T13:32:31;1.50;;;1.30;;
15408;SDS011;7803;48.130;13.788;2023-04-25T13:35:35;1.38;;;1.27;;
15408;SDS011;7803;48.130;13.788;2023-04-25T13:38:37;1.30;;;1.20;;
15408;SDS011;7803;48.130;13.788;2023-04-25T13:41:42;1.30;;;1.20;;
15408;SDS011;7803;48.130;13.788;2023-04-25T13:44:44;1.40;;;1.30;;
15408;SDS011;7803;48.130;13.788;2023-04-25T13:47:46;1.30;;;1.20;;
15408;SDS011;7803;48.130;13.788;2023-04-25T13:50:49;1.83;;;1.40;;
15408;SDS011;7803;48.130;13.788;2023-04-25T13:53:51;1.30;;;1.20;;
15408;SDS011;7803;48.130;13.788;2023-04-25T13:56:53;1.52;;;1.40;;
15408;SDS011;7803;48.130;13.788;2023-04-25T13:59:58;1.30;;;1.20;;
15408;SDS011;7803;48.130;13.788;2023-04-25T14:03:04;1.20;;;1.05;;
15408;SDS011;7803;48.130;13.788;2023-04-25T14:06:08;1.30;;;1.20;;
15408;SDS011;7803;48.130;13.788;2023-04-25T14:09:11;1.40;;;1.30;;
15408;SDS011;7803;48.130;13.788;2023-04-25T14:12:13;1.40;;;1.20;;
15408;SDS011;7803;48.130;13.788;2023-04-25T14:15:15;1.20;;;1.10;;
15408;SDS011;7803;48.130;13.788;2023-04-25T14:18:17;1.45;;;1.35;;
15408;SDS011;7803;48.130;13.788;2023-04-25T14:21:21;1.10;;;1.00;;
15408;SDS011;7803;48.130;13.788;2023-04-25T14:24:23;1.20;;;1.10;;
15408;SDS011;7803;48.130;13.788;2023-04-25T14:27:25;1.33;;;1.10;;
15408;SDS011;7803;48.130;13.788;2023-04-25T14:30:28;1.67;;;1.40;;
15408;SDS011;7803;48.130;13.788;2023-04-25T14:33:30;1.20;;;1.10;;
15408;SDS011;7803;48.130;13.788;2023-04-25T14:36:33;1.20;;;1.02;;
15408;SDS011;7803;48.130;13.788;2023-04-25T14:39:36;1.30;;;1.20;;
15408;SDS011;7803;48.130;13.788;2023-04-25T14:42:38;1.20;;;1.10;;
15408;SDS011;7803;48.130;13.788;2023-04-25T14:45:41;1.30;;;1.20;;
15408;SDS011;7803;48.130;13.788;2023-04-25T14:48:43;1.15;;;1.08;;
15408;SDS011;7803;48.130;13.788;2023-04-25T14:51:46;1.20;;;1.10;;
15408;SDS011;7803;48.130;13.788;2023-04-25T14:54:48;1.15;;;1.10;;
15408;SDS011;7803;48.130;13.788;2023-04-25T14:57:51;1.38;;;1.23;;
15408;SDS011;7803;48.130;13.788;2023-04-25T15:00:55;1.25;;;1.10;;
15408;SDS011;7803;48.130;13.788;2023-04-25T15:03:57;1.20;;;1.10;;
15408;SDS011;7803;48.130;13.788;2023-04-25T15:07:00;1.20;;;1.08;;
15408;SDS011;7803;48.130;13.788;2023-04-25T15:10:03;1.38;;;1.27;;
15408;SDS011;7803;48.130;13.788;2023-04-25T15:13:06;1.10;;;1.00;;
15408;SDS011;7803;48.130;13.788;2023-04-25T15:16:08;1.30;;;1.10;;
15408;SDS011;7803;48.130;13.788;2023-04-25T15:19:11;1.30;;;1.20;;
15408;SDS011;7803;48.130;13.788;2023-04-25T15:22:15;1.30;;;1.20;;
15408;SDS011;7803;48.130;13.788;2023-04-25T15:25:17;1.20;;;1.10;;
15408;SDS011;7803;48.130;13.788;2023-04-25T15:28:19;1.30;;;1.20;;
15408;SDS011;7803;48.130;13.788;2023-04-25T15:31:22;2.35;;;1.27;;
15408;SDS011;7803;48.130;13.788;2023-04-25T15:34:23;1.13;;;1.02;;
15408;SDS011;7803;48.130;13.788;2023-04-25T15:37:27;1.20;;;1.10;;
15408;SDS011;7803;48.130;13.788;2023-04-25T15:40:29;1.20;;;1.10;;
15408;SDS011;7803;48.130;13.788;2023-04-25T15:43:32;1.27;;;1.17;;
15408;SDS011;7803;48.130;13.788;2023-04-25T15:46:35;1.20;;;1.10;;
15408;SDS011;7803;48.130;13.788;2023-04-25T15:49:37;1.20;;;1.10;;
15408;SDS011;7803;48.130;13.788;2023-04-25T15:52:41;1.23;;;1.13;;
15408;SDS011;7803;48.130;13.788;2023-04-25T15:55:44;1.75;;;1.10;;
15408;SDS011;7803;48.130;13.788;2023-04-25T15:58:46;1.23;;;1.13;;
15408;SDS011;7803;48.130;13.788;2023-04-25T16:01:48;1.30;;;1.20;;
15408;SDS011;7803;48.130;13.788;2023-04-25T16:04:50;1.38;;;1.27;;
15408;SDS011;7803;48.130;13.788;2023-04-25T16:07:53;2.00;;;1.10;;
15408;SDS011;7803;48.130;13.788;2023-04-25T16:10:55;1.38;;;1.10;;
15408;SDS011;7803;48.130;13.788;2023-04-25T16:13:57;1.50;;;1.30;;
15408;SDS011;7803;48.130;13.788;2023-04-25T16:16:59;1.25;;;1.15;;
15408;SDS011;7803;48.130;13.788;2023-04-25T16:20:02;1.60;;;1.20;;
15408;SDS011;7803;48.130;13.788;2023-04-25T16:23:10;1.30;;;1.20;;
15408;SDS011;7803;48.130;13.788;2023-04-25T16:26:12;1.30;;;1.20;;
15408;SDS011;7803;48.130;13.788;2023-04-25T16:29:14;1.40;;;1.30;;
15408;SDS011;7803;48.130;13.788;2023-04-25T16:32:16;1.20;;;1.10;;
15408;SDS011;7803;48.130;13.788;2023-04-25T16:35:19;1.65;;;1.50;;
15408;SDS011;7803;48.130;13.788;2023-04-25T16:38:23;1.50;;;1.40;;
15408;SDS011;7803;48.130;13.788;2023-04-25T16:41:25;1.50;;;1.40;;
15408;SDS011;7803;48.130;13.788;2023-04-25T16:44:28;1.35;;;1.25;;
15408;SDS011;7803;48.130;13.788;2023-04-25T16:47:30;1.83;;;1.30;;
15408;SDS011;7803;48.130;13.788;2023-04-25T16:50:32;1.42;;;1.20;;
15408;SDS011;7803;48.130;13.788;2023-04-25T16:53:35;1.38;;;1.27;;
15408;SDS011;7803;48.130;13.788;2023-04-25T16:56:37;1.42;;;1.23;;
15408;SDS011;7803;48.130;13.788;2023-04-25T16:59:40;1.40;;;1.30;;
15408;SDS011;7803;48.130;13.788;2023-04-25T17:02:42;1.30;;;1.20;;
15408;SDS011;7803;48.130;13.788;2023-04-25T17:05:45;1.60;;;1.50;;
15408;SDS011;7803;48.130;13.788;2023-04-25T17:08:51;1.60;;;1.30;;
15408;SDS011;7803;48.130;13.788;2023-04-25T17:11:52;1.45;;;1.33;;
15408;SDS011;7803;48.130;13.788;2023-04-25T17:14:55;1.65;;;1.30;;
15408;SDS011;7803;48.130;13.788;2023-04-25T17:17:59;1.25;;;1.10;;
15408;SDS011;7803;48.130;13.788;2023-04-25T17:21:01;2.30;;;1.30;;
15408;SDS011;7803;48.130;13.788;2023-04-25T17:24:07;1.25;;;1.15;;
15408;SDS011;7803;48.130;13.788;2023-04-25T17:27:11;1.50;;;1.40;;
15408;SDS011;7803;48.130;13.788;2023-04-25T17:30:14;1.35;;;1.25;;
15408;SDS011;7803;48.130;13.788;2023-04-25T17:33:17;1.30;;;1.17;;
15408;SDS011;7803;48.130;13.788;2023-04-25T17:36:19;1.88;;;1.50;;
15408;SDS011;7803;48.130;13.788;2023-04-25T17:39:23;1.40;;;1.30;;
15408;SDS011;7803;48.130;13.788;2023-04-25T17:42:25;1.08;;;1.08;;
15408;SDS011;7803;48.130;13.788;2023-04-25T17:45:28;1.38;;;1.20;;
15408;SDS011;7803;48.130;13.788;2023-04-25T17:48:33;1.20;;;1.10;;
15408;SDS011;7803;48.130;13.788;2023-04-25T17:51:35;1.40;;;1.30;;
15408;SDS011;7803;48.130;13.788;2023-04-25T17:54:39;1.60;;;1.40;;
15408;SDS011;7803;48.130;13.788;2023-04-25T17:57:42;1.50;;;1.40;;
15408;SDS011;7803;48.130;13.788;2023-04-25T18:00:44;1.42;;;1.33;;
15408;SDS011;7803;48.130;13.788;2023-04-25T18:03:46;1.60;;;1.50;;
15408;SDS011;7803;48.130;13.788;2023-04-25T18:06:49;1.33;;;1.23;;
15408;SDS011;7803;48.130;13.788;2023-04-25T18:09:53;1.50;;;1.40;;
15408;SDS011;7803;48.130;13.788;2023-04-25T18:12:55;1.23;;;1.13;;
15408;SDS011;7803;48.130;13.788;2023-04-25T18:15:58;1.65;;;1.55;;
15408;SDS011;7803;48.130;13.788;2023-04-25T18:19:00;1.38;;;1.17;;
15408;SDS011;7803;48.130;13.788;2023-04-25T18:22:04;1.40;;;1.30;;
15408;SDS011;7803;48.130;13.788;2023-04-25T18:25:09;1.50;;;1.40;;